Time;durP1;ratioP1;P1;durP2;ratioP2;P2;SDS_P1;SDS_P2;PMS_P1;PMS_P2;Temp;Humidity;BMP_temperature;BMP_pressure;BME280_temperature;BME280_humidity;BME280_pressure;Samples;Min_cycle;Max_cycle;Signal;HPM_P1;HPM_P2
2022/11/30 00:00:14;;;;;;;13.37;12.47;;;;;;;4.16;100.00;92902.28;5080275;28;20182;-68
2022/11/30 00:02:39;;;;;;;13.10;12.20;;;;;;;4.11;100.00;92902.19;5087901;28;20245;-68
2022/11/30 00:05:05;;;;;;;13.20;11.17;;;;;;;4.16;100.00;92902.28;5088560;28;20214;-68
2022/11/30 00:07:30;;;;;;;12.17;11.37;;;;;;;4.13;100.00;92907.13;5087693;28;20216;-68
2022/11/30 00:09:56;;;;;;;13.73;12.83;;;;;;;4.11;100.00;92909.94;5088484;28;20192;-68
2022/11/30 00:12:21;;;;;;;12.57;11.83;;;;;;;4.15;100.00;92908.47;5088848;28;20191;-68
2022/11/30 00:14:46;;;;;;;12.53;11.63;;;;;;;4.14;100.00;92912.06;5092319;28;20236;-68
2022/11/30 00:17:12;;;;;;;14.57;13.33;;;;;;;4.12;100.00;92919.28;5090682;28;20221;-68
2022/11/30 00:19:37;;;;;;;12.53;11.73;;;;;;;4.08;100.00;92915.56;5092086;28;20172;-68
2022/11/30 00:22:03;;;;;;;11.80;11.10;;;;;;;4.15;100.00;92921.41;5090248;28;20185;-67
2022/11/30 00:24:28;;;;;;;13.03;12.23;;;;;;;4.08;100.00;92918.16;5091675;28;20212;-67
2022/11/30 00:26:53;;;;;;;12.93;12.10;;;;;;;4.22;100.00;92924.59;5091951;28;20208;-68
2022/11/30 00:29:18;;;;;;;13.20;12.40;;;;;;;4.07;100.00;92910.63;5081218;28;20217;-67
2022/11/30 00:31:45;;;;;;;13.30;12.30;;;;;;;4.01;100.00;92917.53;5091571;28;20204;-68
2022/11/30 00:34:10;;;;;;;12.70;11.80;;;;;;;4.08;100.00;92923.31;5090031;28;20259;-68
2022/11/30 00:36:35;;;;;;;13.13;12.27;;;;;;;4.04;100.00;92922.22;5091847;28;20168;-66
2022/11/30 00:39:01;;;;;;;12.90;12.00;;;;;;;4.16;100.00;92930.69;5091464;28;20236;-66
2022/11/30 00:41:26;;;;;;;12.93;12.13;;;;;;;4.07;100.00;92913.22;5091757;28;20241;-66
2022/11/30 00:43:51;;;;;;;12.63;11.73;;;;;;;4.24;100.00;92921.78;5091153;28;20236;-66
2022/11/30 00:46:17;;;;;;;13.00;12.00;;;;;;;4.07;100.00;92901.09;5081116;28;20243;-69
2022/11/30 00:48:42;;;;;;;12.67;11.87;;;;;;;4.30;100.00;92918.28;5090428;28;20216;-68
2022/11/30 00:51:09;;;;;;;13.40;12.50;;;;;;;4.12;100.00;92895.22;5091523;28;20181;-68
2022/11/30 00:53:35;;;;;;;12.73;11.80;;;;;;;4.24;100.00;92907.06;5089757;28;20220;-69
2022/11/30 00:56:01;;;;;;;12.53;11.83;;;;;;;4.17;100.00;92908.25;5091460;28;20188;-68
2022/11/30 00:58:26;;;;;;;12.43;11.63;;;;;;;4.38;100.00;92917.91;5080275;28;20220;-69
2022/11/30 01:00:51;;;;;;;13.60;12.50;;;;;;;4.35;100.00;92911.41;5075759;28;20196;-69
2022/11/30 01:03:16;;;;;;;14.00;12.70;;;;;;;4.43;100.00;92910.22;5090333;28;20228;-69
2022/11/30 01:05:42;;;;;;;14.60;11.63;;;;;;;4.25;100.00;92903.47;5090803;28;20185;-69
2022/11/30 01:08:09;;;;;;;12.60;11.70;;;;;;;4.24;100.00;92907.06;5090833;28;20231;-69
2022/11/30 01:10:37;;;;;;;11.77;10.97;;;;;;;4.16;100.00;92902.28;5091132;28;20236;-69
2022/11/30 01:13:03;;;;;;;12.13;11.43;;;;;;;3.89;100.00;92879.84;5090699;28;20247;-70
2022/11/30 01:15:30;;;;;;;11.90;11.10;;;;;;;4.16;100.00;92904.88;5090953;28;20187;-69
2022/11/30 01:17:57;;;;;;;11.80;11.10;;;;;;;4.12;100.00;92903.78;5090395;28;20227;-69
2022/11/30 01:20:22;;;;;;;11.23;10.63;;;;;;;4.14;100.00;92906.13;5090383;28;20184;-69
2022/11/30 01:22:48;;;;;;;11.37;10.70;;;;;;;4.13;100.00;92910.50;5090492;28;20224;-69
2022/11/30 01:25:13;;;;;;;11.47;10.87;;;;;;;4.14;100.00;92904.31;5089889;28;20240;-68
2022/11/30 01:27:39;;;;;;;10.93;10.33;;;;;;;4.18;100.00;92900.25;5090432;28;20216;-69
2022/11/30 01:30:05;;;;;;;12.30;11.30;;;;;;;4.07;100.00;92901.09;5090186;28;20208;-68
2022/11/30 01:32:30;;;;;;;11.23;10.53;;;;;;;4.11;100.00;92912.53;5089644;28;20221;-68
2022/11/30 01:34:55;;;;;;;11.77;11.07;;;;;;;4.18;100.00;92905.44;5090810;28;20215;-69
2022/11/30 01:37:21;;;;;;;48.17;13.20;;;;;;;4.13;100.00;92910.50;5090198;28;20201;-69
2022/11/30 01:39:47;;;;;;;11.83;11.03;;;;;;;4.07;100.00;92911.44;5089105;28;20912;-69
2022/11/30 01:42:18;;;;;;;11.70;11.00;;;;;;;4.09;100.00;92904.25;5090194;28;20184;-69
2022/11/30 01:44:51;;;;;;;10.87;10.20;;;;;;;4.15;100.00;92900.72;5090625;28;20220;-69
2022/11/30 01:47:19;;;;;;;10.47;9.97;;;;;;;4.10;100.00;92908.38;5089394;28;20209;-69
2022/11/30 01:49:50;;;;;;;11.57;10.80;;;;;;;4.04;100.00;92909.31;5090397;28;20713;-69
2022/11/30 01:52:20;;;;;;;11.27;10.63;;;;;;;3.75;100.00;92863.06;5090131;28;20196;-68
2022/11/30 01:55:07;;;;;;;11.03;10.33;;;;;;;4.10;100.00;92905.78;5090649;28;20181;-69
2022/11/30 01:57:50;;;;;;;35.23;12.10;;;;;;;4.13;100.00;92896.78;5089851;28;20220;-69
2022/11/30 02:00:16;;;;;;;13.17;10.83;;;;;;;4.07;100.00;92900.31;5090080;28;20215;-68
2022/11/30 02:03:02;;;;;;;121.93;14.67;;;;;;;3.99;100.00;92888.53;5088901;28;20216;-69
2022/11/30 02:05:28;;;;;;;11.93;10.67;;;;;;;3.95;100.00;92887.47;5085264;28;20181;-69
2022/11/30 02:07:53;;;;;;;10.00;9.50;;;;;;;4.00;100.00;92900.44;5090016;28;20267;-69
2022/11/30 02:10:27;;;;;;;12.07;10.90;;;;;;;3.91;100.00;92888.91;5089898;28;20185;-69
2022/11/30 02:12:52;;;;;;;12.50;10.50;;;;;;;4.02;100.00;92889.88;5089935;28;20690;-69
2022/11/30 02:15:25;;;;;;;12.83;11.50;;;;;;;4.10;100.00;92890.28;5088746;28;20201;-69
2022/11/30 02:18:17;;;;;;;11.27;10.67;;;;;;;3.96;100.00;92890.81;5089167;28;20229;-69
2022/11/30 02:20:52;;;;;;;10.17;9.67;;;;;;;4.05;100.00;92890.19;5089921;28;20219;-68
2022/11/30 02:23:29;;;;;;;9.70;9.17;;;;;;;4.14;100.00;92895.78;5088284;28;20267;-68
2022/11/30 02:26:22;;;;;;;10.50;9.90;;;;;;;4.12;100.00;92896.03;5079807;28;20188;-68
2022/11/30 02:29:06;;;;;;;11.17;10.40;;;;;;;4.02;100.00;92895.84;5089351;28;20228;-69
2022/11/30 02:31:45;;;;;;;10.57;9.97;;;;;;;4.11;100.00;92880.75;5089672;28;20185;-68
2022/11/30 02:34:14;;;;;;;11.27;10.67;;;;;;;4.32;100.00;92887.81;5080700;28;20247;-69
2022/11/30 02:36:40;;;;;;;12.17;11.07;;;;;;;4.18;100.00;92879.59;5076385;28;20923;-69
2022/11/30 02:39:06;;;;;;;13.53;10.70;;;;;;;4.18;100.00;92891.72;5088977;28;20228;-68
2022/11/30 02:41:36;;;;;;;12.17;11.47;;;;;;;4.03;100.00;92879.31;5088922;28;20183;-68
2022/11/30 02:44:03;;;;;;;14.73;11.17;;;;;;;3.95;100.00;92859.03;5088249;28;20224;-69
2022/11/30 02:46:37;;;;;;;31.03;11.00;;;;;;;4.06;100.00;92886.59;5088589;28;20227;-69
2022/11/30 02:49:12;;;;;;;21.13;11.93;;;;;;;4.19;100.00;92888.09;5085138;28;21892;-69
2022/11/30 02:51:40;;;;;;;22.30;10.83;;;;;;;4.17;100.00;92892.75;5086758;28;20188;-69
2022/11/30 02:54:06;;;;;;;11.97;10.90;;;;;;;4.14;100.00;92888.81;5087781;28;20225;-69
2022/11/30 02:56:32;;;;;;;11.10;10.50;;;;;;;4.05;100.00;92892.78;5089303;28;20188;-69
2022/11/30 02:58:58;;;;;;;11.33;10.57;;;;;;;4.02;100.00;92887.28;5086995;28;20958;-67
2022/11/30 03:01:24;;;;;;;11.53;10.53;;;;;;;4.07;100.00;92888.19;5088512;28;20176;-68
2022/11/30 03:03:49;;;;;;;11.67;10.70;;;;;;;4.23;100.00;92895.19;5088990;28;20217;-68
2022/11/30 03:06:15;;;;;;;11.90;11.20;;;;;;;4.29;100.00;92896.03;5089000;28;20204;-69
2022/11/30 03:08:40;;;;;;;10.37;9.27;;;;;;;4.25;100.00;92893.13;5087488;28;20220;-68
2022/11/30 03:11:05;;;;;;;10.17;9.67;;;;;;;4.24;100.00;92890.78;5088246;28;20201;-68
2022/11/30 03:13:32;;;;;;;15.90;10.33;;;;;;;4.14;100.00;92891.38;5088619;28;20220;-69
2022/11/30 03:16:05;;;;;;;9.93;9.23;;;;;;;4.21;100.00;92886.88;5087664;28;20172;-68
2022/11/30 03:18:31;;;;;;;10.83;10.23;;;;;;;4.28;100.00;92890.06;5086030;28;20224;-68
2022/11/30 03:20:56;;;;;;;10.67;10.07;;;;;;;4.08;100.00;92879.41;5088977;28;20188;-69
2022/11/30 03:23:22;;;;;;;11.03;10.43;;;;;;;4.29;100.00;92898.63;5088408;28;20213;-69
2022/11/30 03:25:47;;;;;;;11.83;9.80;;;;;;;4.18;100.00;92882.19;5089167;28;20230;-69
2022/11/30 03:28:12;;;;;;;10.93;10.23;;;;;;;4.08;100.00;92879.41;5088613;28;20821;-69
2022/11/30 03:30:38;;;;;;;11.40;10.60;;;;;;;4.25;100.00;92898.28;5088376;28;20241;-69
2022/11/30 03:33:03;;;;;;;11.47;10.77;;;;;;;4.15;100.00;92897.34;5088860;28;20224;-68
2022/11/30 03:35:28;;;;;;;10.87;10.07;;;;;;;4.18;100.00;92900.25;5088606;28;20247;-69
2022/11/30 03:37:54;;;;;;;11.50;10.87;;;;;;;4.18;100.00;92896.88;5088738;28;20216;-69
2022/11/30 03:40:19;;;;;;;11.80;10.97;;;;;;;4.23;100.00;92891.81;5088954;28;20181;-68
2022/11/30 03:42:44;;;;;;;10.40;9.80;;;;;;;4.11;100.00;92896.25;5088711;28;20231;-69
2022/11/30 03:45:10;;;;;;;11.57;10.77;;;;;;;4.21;100.00;92893.81;5087876;28;20246;-68
2022/11/30 03:47:36;;;;;;;11.47;10.73;;;;;;;4.22;100.00;92892.81;5089952;28;20224;-69
2022/11/30 03:50:01;;;;;;;12.67;11.77;;;;;;;4.15;100.00;92882.63;5092973;28;20240;-69
2022/11/30 03:52:26;;;;;;;12.27;11.37;;;;;;;4.23;100.00;92896.97;5092458;28;20297;-69
2022/11/30 03:54:52;;;;;;;12.60;11.80;;;;;;;4.14;100.00;92896.56;5092993;28;20172;-69
2022/11/30 03:57:17;;;;;;;12.57;11.53;;;;;;;4.22;100.00;92901.34;5092503;28;20195;-69
2022/11/30 03:59:42;;;;;;;13.17;12.10;;;;;;;4.20;100.00;92895.63;5091642;28;20192;-68
2022/11/30 04:02:08;;;;;;;21.27;12.30;;;;;;;4.13;100.00;92905.34;5091865;28;20215;-69
2022/11/30 04:04:33;;;;;;;14.00;12.53;;;;;;;4.13;100.00;92882.09;5092990;28;20185;-68
2022/11/30 04:06:58;;;;;;;13.30;11.97;;;;;;;4.30;100.00;92895.81;5092705;28;20232;-68
2022/11/30 04:09:24;;;;;;;16.00;11.33;;;;;;;4.17;100.00;92887.56;5091369;28;20216;-69
2022/11/30 04:11:49;;;;;;;43.63;13.07;;;;;;;4.24;100.00;92903.69;5092518;28;20189;-69
2022/11/30 04:14:14;;;;;;;19.90;10.87;;;;;;;4.24;100.00;92901.13;5092320;28;20234;-66
2022/11/30 04:16:40;;;;;;;13.70;10.10;;;;;;;4.21;100.00;92899.00;5091963;28;20200;-66
2022/11/30 04:19:05;;;;;;;12.77;11.57;;;;;;;4.17;100.00;92901.25;5091999;28;20228;-67
2022/11/30 04:21:31;;;;;;;19.67;11.90;;;;;;;4.22;100.00;92908.31;5092614;28;20180;-67
2022/11/30 04:23:56;;;;;;;41.53;11.30;;;;;;;4.26;100.00;92907.63;5091822;28;20223;-67
2022/11/30 04:26:21;;;;;;;32.73;10.30;;;;;;;4.24;100.00;92911.44;5092398;28;20240;-66
2022/11/30 04:28:47;;;;;;;19.40;11.23;;;;;;;4.21;100.00;92914.50;5090957;28;20229;-66
2022/11/30 04:31:12;;;;;;;28.60;12.63;;;;;;;4.32;100.00;92914.47;5091479;28;20184;-66
2022/11/30 04:33:38;;;;;;;29.30;12.00;;;;;;;4.27;100.00;92916.16;5091983;28;20204;-66
2022/11/30 04:36:05;;;;;;;37.00;11.10;;;;;;;4.38;100.00;92913.53;5092296;28;20209;-66
2022/11/30 04:38:32;;;;;;;37.43;11.50;;;;;;;4.32;100.00;92909.28;5091236;28;20224;-66
2022/11/30 04:40:58;;;;;;;21.50;11.07;;;;;;;4.10;100.00;92899.84;5092113;28;20192;-65
2022/11/30 04:43:24;;;;;;;13.20;11.87;;;;;;;4.12;100.00;92908.16;5091042;28;20273;-67
2022/11/30 04:45:49;;;;;;;28.27;10.93;;;;;;;4.05;100.00;92903.13;5090756;28;20200;-67
2022/11/30 04:48:15;;;;;;;10.77;9.97;;;;;;;4.17;100.00;92903.06;5089010;28;20272;-66
2022/11/30 04:50:41;;;;;;;11.70;10.53;;;;;;;4.14;100.00;92906.88;5091522;28;20176;-65
2022/11/30 04:53:07;;;;;;;11.00;9.97;;;;;;;4.09;100.00;92896.50;5088882;28;20225;-65
2022/11/30 04:55:32;;;;;;;11.40;10.17;;;;;;;4.06;100.00;92916.81;5091796;28;20207;-66
2022/11/30 04:57:58;;;;;;;11.87;11.10;;;;;;;4.13;100.00;92915.66;5089331;28;20220;-66
2022/11/30 05:00:24;;;;;;;11.03;10.43;;;;;;;4.19;100.00;92917.31;5089932;28;20200;-66
2022/11/30 05:02:49;;;;;;;10.97;10.27;;;;;;;4.16;100.00;92917.78;5091060;28;20251;-64
2022/11/30 05:05:15;;;;;;;10.63;10.03;;;;;;;4.27;100.00;92919.53;5091351;28;20189;-67
2022/11/30 05:07:41;;;;;;;11.83;11.00;;;;;;;4.27;100.00;92921.31;5081824;28;20220;-66
2022/11/30 05:10:07;;;;;;;12.30;11.30;;;;;;;4.13;100.00;92904.53;5091618;28;20764;-66
2022/11/30 05:12:33;;;;;;;10.90;10.30;;;;;;;4.23;100.00;92925.41;5090646;28;20220;-66
2022/11/30 05:14:58;;;;;;;11.13;10.60;;;;;;;4.16;100.00;92930.69;5090398;28;20181;-66
2022/11/30 05:17:24;;;;;;;11.17;10.57;;;;;;;4.02;100.00;92913.13;5090532;28;20236;-66
2022/11/30 05:19:49;;;;;;;10.47;9.87;;;;;;;4.25;100.00;92929.31;5091163;28;20177;-66
2022/11/30 05:22:15;;;;;;;10.90;10.30;;;;;;;4.17;100.00;92927.09;5090301;28;20173;-66
2022/11/30 05:24:40;;;;;;;10.33;9.83;;;;;;;4.08;100.00;92930.28;5091242;28;20189;-66
2022/11/30 05:27:06;;;;;;;11.00;10.50;;;;;;;4.04;100.00;92922.22;5090052;28;20239;-67
2022/11/30 05:29:33;;;;;;;10.47;10.00;;;;;;;4.07;100.00;92923.56;5090529;28;20922;-66
2022/11/30 05:31:59;;;;;;;10.33;9.83;;;;;;;4.11;100.00;92933.19;5090509;28;20184;-66
2022/11/30 05:34:25;;;;;;;11.27;10.60;;;;;;;4.02;100.00;92915.69;5106725;28;20217;-66
2022/11/30 05:36:50;;;;;;;11.53;10.93;;;;;;;4.03;100.00;92933.56;5087283;28;20223;-66
2022/11/30 05:39:15;;;;;;;11.13;10.43;;;;;;;4.14;100.00;92932.72;5090534;28;20292;-68
2022/11/30 05:41:41;;;;;;;11.00;10.37;;;;;;;4.25;100.00;92933.72;5090562;28;20215;-68
2022/11/30 05:44:07;;;;;;;11.63;11.03;;;;;;;4.19;100.00;92929.44;5084822;28;20228;-68
2022/11/30 05:46:32;;;;;;;11.07;10.47;;;;;;;4.19;100.00;92944.94;5090418;28;20201;-69
2022/11/30 05:48:58;;;;;;;10.87;10.37;;;;;;;4.15;100.00;92936.09;5090429;28;20208;-68
2022/11/30 05:51:23;;;;;;;11.03;10.53;;;;;;;4.34;100.00;92946.00;5089465;28;20195;-68
2022/11/30 05:53:48;;;;;;;10.77;10.17;;;;;;;4.29;100.00;92943.34;5087107;28;20219;-68
2022/11/30 05:56:19;;;;;;;12.03;11.33;;;;;;;4.22;100.00;92945.28;5090453;28;20249;-69
2022/11/30 05:58:45;;;;;;;11.10;10.57;;;;;;;4.15;100.00;92942.06;5085175;28;20290;-69
2022/11/30 06:01:23;;;;;;;11.97;11.27;;;;;;;4.13;100.00;92949.25;5090548;28;20184;-69
2022/11/30 06:03:48;;;;;;;11.43;10.80;;;;;;;4.19;100.00;92950.91;5090425;28;20330;-66
2022/11/30 06:06:13;;;;;;;12.03;11.33;;;;;;;4.22;100.00;92949.66;5090210;28;20227;-66
2022/11/30 06:08:39;;;;;;;11.87;10.97;;;;;;;4.25;100.00;92964.72;5090035;28;20240;-65
2022/11/30 06:11:04;;;;;;;10.90;10.40;;;;;;;4.08;100.00;92943.97;5089980;28;20190;-66
2022/11/30 06:13:32;;;;;;;10.97;10.27;;;;;;;4.34;100.00;92964.09;5088926;28;20288;-65
2022/11/30 06:15:59;;;;;;;12.00;11.30;;;;;;;4.38;100.00;92967.78;5090481;28;20230;-66
2022/11/30 06:18:25;;;;;;;15.57;11.30;;;;;;;4.23;100.00;92971.91;5089894;28;20284;-66
2022/11/30 06:20:50;;;;;;;11.40;10.90;;;;;;;4.26;100.00;92972.22;5085620;28;20181;-65
2022/11/30 06:23:15;;;;;;;10.73;10.07;;;;;;;4.19;100.00;92963.03;5073816;28;20217;-65
2022/11/30 06:25:41;;;;;;;11.03;9.90;;;;;;;4.17;100.00;92973.59;5089360;28;20177;-66
2022/11/30 06:28:10;;;;;;;11.43;10.83;;;;;;;4.15;100.00;92972.25;5083585;28;20252;-67
2022/11/30 06:30:36;;;;;;;11.37;10.53;;;;;;;4.34;100.00;92966.66;5082860;28;20185;-66
2022/11/30 06:33:01;;;;;;;11.70;11.00;;;;;;;4.13;100.00;92951.84;5083412;28;20271;-67
2022/11/30 06:35:27;;;;;;;11.63;11.03;;;;;;;4.19;100.00;92965.63;5092523;28;20188;-66
2022/11/30 06:37:53;;;;;;;11.20;10.57;;;;;;;4.26;100.00;92968.84;5088895;28;20224;-67
2022/11/30 06:40:18;;;;;;;16.23;10.83;;;;;;;4.19;100.00;92965.63;5086183;28;20176;-67
2022/11/30 06:42:44;;;;;;;12.10;11.40;;;;;;;4.08;100.00;92964.66;5090687;28;20242;-66
2022/11/30 06:45:09;;;;;;;14.13;12.97;;;;;;;4.24;100.00;92982.00;5088963;28;20223;-67
2022/11/30 06:47:35;;;;;;;12.17;11.27;;;;;;;4.23;100.00;92980.44;5090901;28;20220;-65
2022/11/30 06:50:02;;;;;;;11.87;11.10;;;;;;;4.28;100.00;92988.28;5088214;28;20201;-66
2022/11/30 06:52:30;;;;;;;11.60;10.90;;;;;;;4.27;100.00;92985.91;5093502;28;20257;-66
2022/11/30 06:54:55;;;;;;;12.67;11.40;;;;;;;4.29;100.00;92982.09;5087705;28;20185;-65
2022/11/30 06:57:25;;;;;;;11.40;10.67;;;;;;;4.20;100.00;92983.47;5083028;28;21170;-66
2022/11/30 06:59:50;;;;;;;11.67;10.97;;;;;;;4.41;100.00;92982.84;5084776;28;20183;-66
2022/11/30 07:02:16;;;;;;;11.57;10.87;;;;;;;4.40;100.00;92981.28;5087820;28;20215;-65
2022/11/30 07:04:41;;;;;;;11.23;10.63;;;;;;;4.36;100.00;92971.59;5088990;28;20185;-66
2022/11/30 07:07:07;;;;;;;12.27;11.57;;;;;;;4.42;100.00;92970.72;5087341;28;20245;-68
2022/11/30 07:09:35;;;;;;;13.00;12.10;;;;;;;4.36;100.00;92961.28;5078921;28;20180;-69
2022/11/30 07:12:01;;;;;;;12.90;12.03;;;;;;;4.35;100.00;92977.81;5079695;28;20216;-67
2022/11/30 07:14:27;;;;;;;13.33;12.00;;;;;;;4.43;100.00;92980.81;5084054;28;20219;-67
2022/11/30 07:16:52;;;;;;;14.67;10.33;;;;;;;4.50;100.00;92976.25;5085992;28;20227;-67
2022/11/30 07:19:18;;;;;;;11.70;10.90;;;;;;;4.39;100.00;92982.28;5087497;28;20212;-68
2022/11/30 07:21:43;;;;;;;11.27;10.57;;;;;;;4.37;100.00;92979.13;5084229;28;20198;-69
2022/11/30 07:27:02;;;;;;;11.17;10.57;;;;;;;4.31;100.00;92974.88;5086246;28;20274;-68
2022/11/30 07:29:28;;;;;;;11.50;10.90;;;;;;;4.28;100.00;92977.94;5084873;28;20296;-69
2022/11/30 07:31:53;;;;;;;11.13;10.63;;;;;;;4.26;100.00;92961.91;5082182;28;20188;-67
2022/11/30 07:34:20;;;;;;;9.90;9.40;;;;;;;4.45;100.00;92978.75;5084407;28;20303;-68
2022/11/30 07:36:46;;;;;;;11.37;10.77;;;;;;;4.46;100.00;92976.97;5077651;28;20181;-67
2022/11/30 07:39:12;;;;;;;10.63;10.23;;;;;;;4.42;100.00;92971.47;5083532;28;20415;-66
2022/11/30 07:41:38;;;;;;;10.67;10.23;;;;;;;4.44;100.00;92966.06;5086645;28;20198;-66
2022/11/30 07:44:05;;;;;;;11.43;10.83;;;;;;;4.33;100.00;92975.44;5085749;28;20245;-70
2022/11/30 07:46:32;;;;;;;10.90;10.40;;;;;;;4.51;100.00;92980.41;5083203;28;20220;-70
2022/11/30 07:48:58;;;;;;;11.07;10.47;;;;;;;4.40;100.00;92981.28;5087719;28;20209;-68
2022/11/30 07:51:23;;;;;;;11.00;10.40;;;;;;;4.37;100.00;92973.97;5086767;28;20184;-72
2022/11/30 07:53:49;;;;;;;10.90;10.40;;;;;;;4.52;100.00;92974.25;5087124;28;20760;-70
2022/11/30 07:56:17;;;;;;;11.77;11.00;;;;;;;4.29;100.00;92945.94;5086963;28;20211;-68
2022/11/30 07:58:43;;;;;;;11.17;10.27;;;;;;;4.37;100.00;92955.09;5085130;28;20239;-69
2022/11/30 08:01:14;;;;;;;10.90;10.20;;;;;;;4.52;100.00;92968.28;5086774;28;20193;-70
2022/11/30 08:03:40;;;;;;;11.00;10.40;;;;;;;4.48;100.00;92967.19;5084751;28;20266;-71
2022/11/30 08:06:07;;;;;;;11.03;10.53;;;;;;;4.48;100.00;92973.13;5085311;28;20193;-71
2022/11/30 08:08:34;;;;;;;10.60;10.00;;;;;;;4.59;100.00;92968.94;5083690;28;20229;-70
2022/11/30 08:11:01;;;;;;;10.57;10.07;;;;;;;4.49;100.00;92972.13;5087371;28;20177;-67
2022/11/30 08:13:27;;;;;;;10.43;9.93;;;;;;;4.52;100.00;92971.66;5085134;28;20316;-69
2022/11/30 08:15:54;;;;;;;10.87;10.37;;;;;;;4.68;100.00;92983.84;5084898;28;20211;-67
2022/11/30 08:18:20;;;;;;;10.83;10.33;;;;;;;4.51;100.00;92970.06;5084143;28;20334;-69
2022/11/30 08:20:46;;;;;;;11.23;10.57;;;;;;;4.58;100.00;92975.88;5086735;28;20184;-68
2022/11/30 08:23:11;;;;;;;10.20;9.80;;;;;;;4.60;100.00;92978.25;5085238;28;20228;-70
2022/11/30 08:25:37;;;;;;;10.13;9.73;;;;;;;4.56;100.00;92982.31;5085156;28;20188;-69
2022/11/30 08:28:03;;;;;;;10.53;9.93;;;;;;;4.48;100.00;92978.28;5086555;28;20311;-69
2022/11/30 08:30:28;;;;;;;10.43;9.83;;;;;;;4.62;100.00;92973.63;5080421;28;20192;-67
2022/11/30 08:32:54;;;;;;;12.13;11.43;;;;;;;4.75;100.00;92975.91;5085672;28;20278;-68
2022/11/30 08:35:19;;;;;;;11.17;10.67;;;;;;;4.67;100.00;92974.50;5090371;28;20249;-69
2022/11/30 08:37:44;;;;;;;11.17;10.57;;;;;;;4.64;100.00;92976.75;5089589;28;20229;-72
2022/11/30 08:40:10;;;;;;;9.97;9.47;;;;;;;4.71;100.00;92964.47;5084956;28;20181;-71
2022/11/30 08:42:35;;;;;;;11.03;10.53;;;;;;;4.69;100.00;92972.47;5085812;28;20227;-71
2022/11/30 08:45:01;;;;;;;9.67;9.27;;;;;;;4.73;100.00;92968.38;5088362;28;20217;-71
2022/11/30 08:47:29;;;;;;;10.97;10.37;;;;;;;4.86;100.00;92968.09;5089323;28;20224;-71
2022/11/30 08:49:54;;;;;;;10.90;10.37;;;;;;;4.83;100.00;92973.72;5090540;28;20197;-71
2022/11/30 08:52:19;;;;;;;10.83;10.40;;;;;;;4.79;100.00;92956.31;5089942;28;20216;-71
2022/11/30 08:54:46;;;;;;;11.03;10.53;;;;;;;4.85;100.00;92958.78;5089714;28;20186;-71
2022/11/30 08:57:11;;;;;;;10.97;10.40;;;;;;;4.79;100.00;92977.78;5085116;28;20200;-71
2022/11/30 08:59:37;;;;;;;10.83;10.23;;;;;;;4.89;100.00;92972.00;5083188;28;20200;-68
2022/11/30 09:02:02;;;;;;;11.20;10.40;;;;;;;4.91;100.00;92975.13;5089033;28;20265;-68
2022/11/30 09:04:28;;;;;;;10.50;9.90;;;;;;;4.83;100.00;92958.22;5089167;28;20222;-68
2022/11/30 09:06:57;;;;;;;10.87;10.17;;;;;;;4.85;100.00;92970.91;5090173;28;21165;-68
2022/11/30 09:09:23;;;;;;;11.77;10.93;;;;;;;4.93;100.00;92973.88;5089758;28;20220;-68
2022/11/30 09:11:49;;;;;;;12.30;11.50;;;;;;;4.94;100.00;92978.03;5090543;28;20205;-67
2022/11/30 09:14:14;;;;;;;12.53;11.53;;;;;;;5.13;100.00;92972.63;5089697;28;20212;-69
2022/11/30 09:16:40;;;;;;;12.60;11.80;;;;;;;4.98;100.00;92965.41;5089303;28;20203;-68
2022/11/30 09:19:05;;;;;;;12.03;11.33;;;;;;;5.08;100.00;92960.41;5088717;28;20223;-69
2022/11/30 09:21:30;;;;;;;12.53;11.83;;;;;;;5.09;100.00;92976.72;5083851;28;20775;-69
2022/11/30 09:23:56;;;;;;;10.17;9.63;;;;;;;4.83;100.00;92967.75;5088600;28;20296;-69
2022/11/30 09:26:24;;;;;;;12.60;11.87;;;;;;;4.82;100.00;92981.72;5090491;28;20213;-69
2022/11/30 09:28:50;;;;;;;12.00;11.10;;;;;;;4.88;100.00;92976.41;5089599;28;20216;-71
2022/11/30 09:31:17;;;;;;;11.80;11.07;;;;;;;4.83;100.00;92963.38;5088065;28;20192;-68
2022/11/30 09:33:43;;;;;;;11.57;10.77;;;;;;;4.92;100.00;92976.69;5089137;28;20288;-69
2022/11/30 09:36:11;;;;;;;11.93;11.17;;;;;;;4.99;100.00;92974.75;5088269;28;20187;-69
2022/11/30 09:38:37;;;;;;;11.63;10.87;;;;;;;5.20;100.00;92981.03;5084682;28;20224;-69
2022/11/30 09:41:24;;;;;;;13.27;12.43;;;;;;;5.11;100.00;92974.66;5088406;28;20189;-69
2022/11/30 09:43:59;;;;;;;11.20;10.60;;;;;;;5.01;100.00;92980.47;5079789;28;20246;-71
2022/11/30 09:46:32;;;;;;;11.90;11.20;;;;;;;5.00;100.00;92983.31;5082115;28;20200;-70
2022/11/30 09:49:01;;;;;;;12.73;11.83;;;;;;;5.04;100.00;92985.19;5084639;28;20232;-71
2022/11/30 09:51:41;;;;;;;11.93;11.27;;;;;;;4.93;100.00;92996.38;5086796;28;20189;-71
2022/11/30 09:54:13;;;;;;;12.73;11.97;;;;;;;5.02;100.00;92982.03;5089629;28;20208;-69
2022/11/30 09:56:40;;;;;;;11.50;10.80;;;;;;;5.10;100.00;92986.03;5087994;28;20177;-70
2022/11/30 09:59:28;;;;;;;12.07;11.47;;;;;;;5.15;100.00;92970.59;5089030;28;20485;-69
2022/11/30 10:01:55;;;;;;;11.83;11.20;;;;;;;5.35;100.00;92976.06;5088161;28;20248;-69
2022/11/30 10:04:28;;;;;;;11.17;10.60;;;;;;;5.37;100.00;92981.78;5084364;28;20275;-69
2022/11/30 10:07:17;;;;;;;10.73;10.13;;;;;;;5.28;100.00;92978.00;5087582;28;20225;-69
2022/11/30 10:09:52;;;;;;;12.03;11.33;;;;;;;5.25;100.00;92987.03;5083986;28;20692;-68
2022/11/30 10:12:24;;;;;;;12.30;11.60;;;;;;;5.22;100.00;92979.75;5087868;28;20188;-69
2022/11/30 10:15:17;;;;;;;10.67;10.07;;;;;;;5.17;100.00;92984.09;5080397;28;20220;-69
2022/11/30 10:17:59;;;;;;;11.97;11.17;;;;;;;5.29;100.00;92987.38;5088360;28;20220;-70
2022/11/30 10:20:56;;;;;;;10.87;10.27;;;;;;;5.27;100.00;92977.25;5087779;28;20188;-71
2022/11/30 10:23:35;;;;;;;11.77;11.07;;;;;;;5.06;100.00;92959.06;5077140;28;20224;-70
2022/11/30 10:26:29;;;;;;;13.03;11.93;;;;;;;5.19;100.00;92969.09;5104797;28;20197;-70
2022/11/30 10:29:05;;;;;;;11.90;11.00;;;;;;;5.17;100.00;92968.56;5087869;28;20284;-70
2022/11/30 10:31:35;;;;;;;12.53;11.77;;;;;;;5.17;100.00;92969.31;5089049;28;20184;-70
2022/11/30 10:34:20;;;;;;;12.33;11.53;;;;;;;5.09;100.00;92974.88;5088364;28;20227;-69
2022/11/30 10:36:53;;;;;;;12.80;11.80;;;;;;;5.07;100.00;92966.59;5104273;28;20192;-70
2022/11/30 10:39:23;;;;;;;12.30;11.60;;;;;;;5.03;100.00;92968.06;5087130;28;20221;-70
2022/11/30 10:41:58;;;;;;;12.10;11.40;;;;;;;4.89;100.00;92940.94;5083577;28;20197;-70
2022/11/30 10:44:29;;;;;;;11.17;10.47;;;;;;;5.05;100.00;92939.38;5086912;28;20212;-70
2022/11/30 10:47:09;;;;;;;12.27;11.50;;;;;;;5.05;100.00;92958.28;5085386;28;20209;-70
2022/11/30 10:49:37;;;;;;;12.30;11.47;;;;;;;4.97;100.00;92953.50;5082723;28;20204;-69
2022/11/30 10:52:07;;;;;;;11.97;11.37;;;;;;;4.96;100.00;92944.94;5085554;28;20193;-71
2022/11/30 10:54:35;;;;;;;12.17;11.40;;;;;;;4.97;100.00;92949.13;5088120;28;20208;-71
2022/11/30 10:57:04;;;;;;;11.57;10.97;;;;;;;4.98;100.00;92955.06;5088052;28;20184;-72
2022/11/30 10:59:41;;;;;;;11.70;11.03;;;;;;;5.03;100.00;92951.78;5088482;28;20949;-70
2022/11/30 11:02:44;;;;;;;10.57;10.03;;;;;;;4.95;100.00;92943.38;5088808;28;20189;-70
2022/11/30 11:05:28;;;;;;;11.40;10.70;;;;;;;4.96;100.00;92937.19;5086583;28;20253;-70
2022/11/30 11:07:59;;;;;;;11.07;10.43;;;;;;;4.88;100.00;92936.81;5102726;28;20229;-69
2022/11/30 11:10:48;;;;;;;12.10;11.50;;;;;;;4.97;100.00;92936.19;5087947;28;20439;-69
2022/11/30 11:13:37;;;;;;;11.27;10.67;;;;;;;4.93;100.00;92916.97;5084529;28;20224;-69
2022/11/30 11:16:05;;;;;;;12.10;11.43;;;;;;;5.16;100.00;92941.88;5087347;28;20177;-68
2022/11/30 11:18:32;;;;;;;12.07;11.37;;;;;;;5.04;100.00;92943.00;5087689;28;20315;-68
2022/11/30 11:21:04;;;;;;;12.20;11.40;;;;;;;5.05;100.00;92939.38;5086486;28;20212;-69
2022/11/30 11:23:40;;;;;;;11.53;10.87;;;;;;;4.95;100.00;92920.09;5087820;28;20228;-70